Time;durP1;ratioP1;P1;durP2;ratioP2;P2;SDS_P1;SDS_P2;PMS_P1;PMS_P2;Temp;Humidity;BMP_temperature;BMP_pressure;BME280_temperature;BME280_humidity;BME280_pressure;Samples;Min_cycle;Max_cycle;Signal;HPM_P1;HPM_P2
2022/09/29 00:00:38;;;;;;;2.10;1.23;;;16.30;99.90;;;;;;6278965;22;20431;-80
2022/09/29 00:03:04;;;;;;;4.15;1.00;;;16.30;99.90;;;;;;6278877;22;20488;-81
2022/09/29 00:05:32;;;;;;;3.30;1.40;;;16.40;99.90;;;;;;6306176;22;19996;-81
2022/09/29 00:07:58;;;;;;;5.05;1.52;;;16.40;99.90;;;;;;6306137;22;20010;-81
2022/09/29 00:10:24;;;;;;;9.35;1.92;;;16.40;99.90;;;;;;6306406;22;20007;-81
2022/09/29 00:12:50;;;;;;;6.15;1.30;;;16.40;99.90;;;;;;6278935;22;20412;-80
2022/09/29 00:15:16;;;;;;;5.43;1.30;;;16.40;99.90;;;;;;6306053;22;20003;-80
2022/09/29 00:17:41;;;;;;;5.43;1.17;;;16.40;99.90;;;;;;6278972;22;20011;-81
2022/09/29 00:20:10;;;;;;;2.08;1.10;;;16.40;99.90;;;;;;6306152;22;20162;-81
2022/09/29 00:22:36;;;;;;;9.70;1.58;;;16.40;99.90;;;;;;6306059;22;19996;-80
2022/09/29 00:25:02;;;;;;;2.92;1.30;;;16.50;99.90;;;;;;6306243;22;20005;-81
2022/09/29 00:27:28;;;;;;;6.28;1.60;;;16.50;99.90;;;;;;6278516;22;20018;-81
2022/09/29 00:29:53;;;;;;;5.47;1.50;;;16.50;99.90;;;;;;6305945;22;19999;-80
2022/09/29 00:32:22;;;;;;;7.90;1.65;;;16.50;99.90;;;;;;6306185;22;20078;-80
2022/09/29 00:34:49;;;;;;;3.55;1.60;;;16.50;99.90;;;;;;6306156;22;20081;-81
2022/09/29 00:37:15;;;;;;;2.55;1.45;;;16.50;99.90;;;;;;6305860;22;20003;-80
2022/09/29 00:39:41;;;;;;;2.40;1.48;;;16.60;99.90;;;;;;6305905;22;20382;-81
2022/09/29 00:42:11;;;;;;;5.32;1.63;;;16.60;99.90;;;;;;6306143;22;20021;-81
2022/09/29 00:45:05;;;;;;;2.92;1.20;;;16.60;99.90;;;;;;6305967;22;20003;-81
2022/09/29 00:47:34;;;;;;;3.30;0.90;;;16.60;99.90;;;;;;6305896;22;20023;-81
2022/09/29 00:50:18;;;;;;;3.80;1.38;;;16.60;99.90;;;;;;6305990;22;20381;-81
2022/09/29 00:52:56;;;;;;;3.80;1.30;;;16.60;99.90;;;;;;6306152;22;20084;-81
2022/09/29 00:55:30;;;;;;;2.70;1.17;;;16.50;99.90;;;;;;6305865;22;20004;-81
2022/09/29 00:58:11;;;;;;;4.15;1.45;;;16.50;99.90;;;;;;6277939;22;20100;-81
2022/09/29 01:00:38;;;;;;;2.53;1.10;;;16.50;99.90;;;;;;6278359;22;20084;-80
2022/09/29 01:03:11;;;;;;;3.63;1.17;;;16.50;99.90;;;;;;6278311;22;20011;-81
2022/09/29 01:05:43;;;;;;;5.03;1.27;;;16.50;99.90;;;;;;6305733;22;19999;-81
2022/09/29 01:08:18;;;;;;;;;;;16.60;99.90;;;;;;6278821;22;20027;-80
2022/09/29 01:10:46;;;;;;;3.42;1.40;;;16.60;99.90;;;;;;6278287;22;19899;-80
2022/09/29 01:13:12;;;;;;;2.00;1.13;;;16.60;99.90;;;;;;6278333;22;20398;-81
2022/09/29 01:15:38;;;;;;;4.65;1.10;;;16.60;99.90;;;;;;6278004;22;20307;-80
2022/09/29 01:18:05;;;;;;;7.50;1.65;;;16.60;99.90;;;;;;6278017;22;20011;-80
2022/09/29 01:20:33;;;;;;;3.40;1.23;;;16.60;99.90;;;;;;6305594;22;19999;-80
2022/09/29 01:23:05;;;;;;;5.28;1.15;;;16.70;99.90;;;;;;6278341;22;20008;-80
2022/09/29 01:25:48;;;;;;;4.13;1.08;;;16.70;99.90;;;;;;6305674;22;19999;-80
2022/09/29 01:28:51;;;;;;;3.97;1.20;;;16.70;99.90;;;;;;6305692;22;19999;-80
2022/09/29 01:31:46;;;;;;;6.53;1.50;;;16.60;99.90;;;;;;6305480;22;19999;-80
2022/09/29 01:34:50;;;;;;;3.25;1.17;;;16.60;99.90;;;;;;6259376;22;20330;-80
2022/09/29 01:37:28;;;;;;;3.90;1.25;;;16.60;99.90;;;;;;6181081;23;20005;-80
2022/09/29 01:40:07;;;;;;;4.95;1.10;;;16.60;99.90;;;;;;6180726;23;20013;-80
2022/09/29 01:42:41;;;;;;;2.78;1.02;;;16.60;99.90;;;;;;6260640;22;20388;-80
2022/09/29 01:45:29;;;;;;;4.95;1.13;;;16.60;99.90;;;;;;6305466;22;19995;-80
2022/09/29 01:48:00;;;;;;;4.38;2.10;;;16.60;99.90;;;;;;6305416;22;20006;-80
2022/09/29 01:50:51;;;;;;;7.50;1.40;;;16.60;99.90;;;;;;6278156;22;20027;-80
2022/09/29 01:53:24;;;;;;;4.07;1.53;;;16.50;99.90;;;;;;6277950;22;20162;-80
2022/09/29 01:55:54;;;;;;;3.30;1.13;;;16.50;99.90;;;;;;6277999;22;20301;-80
2022/09/29 01:58:43;;;;;;;4.40;1.60;;;16.50;99.90;;;;;;6278119;22;20090;-80
2022/09/29 02:01:13;;;;;;;1.75;1.02;;;16.40;99.90;;;;;;6305457;22;19999;-80
2022/09/29 02:03:56;;;;;;;5.55;1.05;;;16.40;99.90;;;;;;6305189;22;20015;-80
2022/09/29 02:06:36;;;;;;;3.10;1.38;;;16.40;99.90;;;;;;6277820;22;20378;-80
2022/09/29 02:09:07;;;;;;;4.22;1.25;;;16.40;99.90;;;;;;6277908;22;20003;-80
2022/09/29 02:11:36;;;;;;;4.43;1.20;;;16.30;99.90;;;;;;6305479;22;20007;-80
2022/09/29 02:14:25;;;;;;;2.33;1.02;;;16.20;99.90;;;;;;6278010;22;20014;-80
2022/09/29 02:17:22;;;;;;;6.03;1.35;;;16.20;99.90;;;;;;6305279;22;19999;-80
2022/09/29 02:19:50;;;;;;;2.90;1.65;;;16.20;99.90;;;;;;6276765;22;20027;-80
2022/09/29 02:22:17;;;;;;;1.92;1.42;;;16.20;99.90;;;;;;6305356;22;20029;-80
2022/09/29 02:24:43;;;;;;;6.10;1.27;;;16.30;99.90;;;;;;6305015;22;20003;-81
2022/09/29 02:27:09;;;;;;;3.10;1.50;;;16.20;99.90;;;;;;6278373;22;20003;-80
2022/09/29 02:29:36;;;;;;;3.80;1.70;;;16.20;99.90;;;;;;6307282;22;20339;-80
2022/09/29 02:32:08;;;;;;;6.93;1.60;;;16.20;99.90;;;;;;6307013;22;20076;-80
2022/09/29 02:34:40;;;;;;;1.52;1.27;;;16.20;99.90;;;;;;6307269;22;20392;-80
2022/09/29 02:37:30;;;;;;;2.30;1.70;;;16.20;99.90;;;;;;6307265;22;20004;-80
2022/09/29 02:40:07;;;;;;;3.38;2.13;;;16.20;99.90;;;;;;6307017;22;20008;-80
2022/09/29 02:43:15;;;;;;;5.90;1.88;;;16.20;99.90;;;;;;6279516;22;20094;-80
2022/09/29 02:46:04;;;;;;;2.75;1.70;;;16.20;99.90;;;;;;6249248;22;20446;-80
2022/09/29 02:48:55;;;;;;;3.05;1.40;;;16.20;99.90;;;;;;6307049;22;20007;-80
2022/09/29 02:51:38;;;;;;;2.05;1.30;;;16.30;99.90;;;;;;6279583;22;20050;-80
2022/09/29 02:54:04;;;;;;;4.07;1.13;;;16.30;99.90;;;;;;6306862;22;19999;-81
2022/09/29 02:56:39;;;;;;;3.63;1.33;;;16.20;99.90;;;;;;6307144;22;20010;-80
2022/09/29 02:59:26;;;;;;;3.72;1.65;;;16.30;99.90;;;;;;6306701;22;20060;-80
2022/09/29 03:01:54;;;;;;;3.30;1.67;;;16.30;99.90;;;;;;6306654;22;20003;-80
2022/09/29 03:04:23;;;;;;;4.88;1.50;;;16.30;99.90;;;;;;6279255;22;20052;-80
2022/09/29 03:06:49;;;;;;;2.53;1.20;;;16.20;99.90;;;;;;6306848;22;19995;-80
2022/09/29 03:09:15;;;;;;;4.57;1.45;;;16.20;99.90;;;;;;6279369;22;19999;-80
2022/09/29 03:11:40;;;;;;;3.92;1.45;;;16.20;99.90;;;;;;6279232;22;20030;-80
2022/09/29 03:14:06;;;;;;;2.85;1.35;;;16.20;99.90;;;;;;6306778;22;20438;-80
2022/09/29 03:16:32;;;;;;;4.25;1.30;;;16.20;99.90;;;;;;6306564;22;20007;-78
2022/09/29 03:18:58;;;;;;;4.72;1.40;;;16.10;99.90;;;;;;6279064;22;20094;-80
2022/09/29 03:21:24;;;;;;;4.43;1.00;;;16.10;99.90;;;;;;6279549;22;20046;-80
2022/09/29 03:23:49;;;;;;;4.13;1.48;;;16.00;99.90;;;;;;6306581;22;20065;-80
2022/09/29 03:26:15;;;;;;;4.63;1.55;;;16.00;99.90;;;;;;6279296;22;20011;-80
2022/09/29 03:28:44;;;;;;;9.40;1.92;;;16.00;99.90;;;;;;6306523;22;20000;-80
2022/09/29 03:31:09;;;;;;;2.72;1.27;;;16.00;99.90;;;;;;6279123;22;20057;-80
2022/09/29 03:33:37;;;;;;;3.50;1.33;;;15.90;99.90;;;;;;6306500;22;20081;-80
2022/09/29 03:36:04;;;;;;;3.10;1.52;;;15.90;99.90;;;;;;6306603;22;20331;-80
2022/09/29 03:38:30;;;;;;;2.58;1.50;;;15.90;99.90;;;;;;6306143;22;19999;-80
2022/09/29 03:40:56;;;;;;;3.13;1.20;;;15.90;99.90;;;;;;6306220;22;20000;-81
2022/09/29 03:43:22;;;;;;;4.93;1.40;;;15.90;99.90;;;;;;6306568;22;20007;-81
2022/09/29 03:45:49;;;;;;;2.53;1.40;;;15.80;99.90;;;;;;6306499;22;19995;-81
2022/09/29 03:48:15;;;;;;;1.70;1.40;;;15.80;99.90;;;;;;6278887;22;20007;-80
2022/09/29 03:50:41;;;;;;;3.33;1.50;;;15.70;99.90;;;;;;6306662;22;19999;-81
2022/09/29 03:53:07;;;;;;;2.67;0.95;;;15.70;99.90;;;;;;6279104;22;20078;-81
2022/09/29 03:55:32;;;;;;;3.10;1.33;;;15.60;99.90;;;;;;6278954;22;20007;-81
2022/09/29 03:57:58;;;;;;;4.32;1.40;;;15.70;99.90;;;;;;6306361;22;20004;-81
2022/09/29 04:00:24;;;;;;;5.28;1.30;;;15.70;99.90;;;;;;6306278;22;20029;-81
2022/09/29 04:02:49;;;;;;;4.68;1.65;;;15.70;99.90;;;;;;6306045;22;20504;-81
2022/09/29 04:05:17;;;;;;;3.15;1.10;;;15.70;99.90;;;;;;6279088;22;19999;-81
2022/09/29 04:07:42;;;;;;;2.83;1.60;;;15.70;99.90;;;;;;6279030;22;20011;-81
2022/09/29 04:10:08;;;;;;;7.07;1.60;;;15.60;99.90;;;;;;6306041;22;20319;-81
2022/09/29 04:12:34;;;;;;;2.92;1.13;;;15.60;99.90;;;;;;6306359;22;20025;-81
2022/09/29 04:15:04;;;;;;;4.57;1.58;;;15.60;99.90;;;;;;6306051;22;20359;-80
2022/09/29 04:17:29;;;;;;;5.80;1.38;;;15.60;99.90;;;;;;6306211;22;19995;-81
2022/09/29 04:19:56;;;;;;;3.65;1.50;;;15.60;99.90;;;;;;6306046;22;20011;-81
2022/09/29 04:22:22;;;;;;;4.97;2.45;;;15.60;99.90;;;;;;6306291;22;20335;-81
2022/09/29 04:24:47;;;;;;;7.13;1.65;;;15.60;99.90;;;;;;6305815;22;19995;-81
2022/09/29 04:27:14;;;;;;;3.63;1.42;;;15.50;99.90;;;;;;6277919;22;20006;-80
2022/09/29 04:29:40;;;;;;;4.32;1.27;;;15.50;99.90;;;;;;6306927;22;20029;-80
2022/09/29 04:32:06;;;;;;;3.08;1.60;;;15.50;99.90;;;;;;6307799;22;19999;-80
2022/09/29 04:34:32;;;;;;;2.83;1.60;;;15.40;99.90;;;;;;6280011;22;20007;-80
2022/09/29 04:36:57;;;;;;;2.33;1.25;;;15.40;99.90;;;;;;6279687;22;20064;-78
2022/09/29 04:39:23;;;;;;;4.18;1.63;;;15.40;99.90;;;;;;6279988;22;20476;-80
2022/09/29 04:41:49;;;;;;;2.63;1.38;;;15.30;99.90;;;;;;6279621;22;20004;-81
2022/09/29 04:44:21;;;;;;;6.93;1.70;;;15.40;99.90;;;;;;6278397;22;20029;-79
2022/09/29 04:46:49;;;;;;;4.57;1.40;;;15.30;99.90;;;;;;6279725;22;20007;-81
2022/09/29 04:49:14;;;;;;;2.95;1.38;;;15.30;99.90;;;;;;6279524;22;20457;-80
2022/09/29 04:51:40;;;;;;;4.85;1.30;;;15.30;99.90;;;;;;6307598;22;20003;-80
2022/09/29 04:54:06;;;;;;;2.58;1.80;;;15.30;99.90;;;;;;6279454;22;19999;-80
2022/09/29 04:56:32;;;;;;;5.38;1.92;;;15.30;99.90;;;;;;6307428;22;20054;-81
2022/09/29 04:58:58;;;;;;;1.70;1.20;;;15.30;99.90;;;;;;6307160;22;20026;-81
2022/09/29 05:01:24;;;;;;;8.02;1.50;;;15.20;99.90;;;;;;6307267;22;19996;-81
2022/09/29 05:03:49;;;;;;;4.53;2.05;;;15.30;99.90;;;;;;6279813;22;20391;-81
2022/09/29 05:06:16;;;;;;;6.65;2.00;;;15.30;99.90;;;;;;6280272;22;20042;-81
2022/09/29 05:08:42;;;;;;;2.88;1.67;;;15.20;99.90;;;;;;6307701;22;20025;-80
2022/09/29 05:11:09;;;;;;;6.43;2.25;;;15.20;99.90;;;;;;6307341;22;20434;-80
2022/09/29 05:13:35;;;;;;;4.15;2.17;;;15.20;99.90;;;;;;6307365;22;20083;-80
2022/09/29 05:16:02;;;;;;;2.55;1.50;;;15.20;99.90;;;;;;6306487;22;20026;-81
2022/09/29 05:18:29;;;;;;;4.10;1.70;;;15.20;99.90;;;;;;6304016;22;20006;-81
2022/09/29 05:20:54;;;;;;;6.88;1.70;;;15.10;99.90;;;;;;6303529;22;20308;-81
2022/09/29 05:23:20;;;;;;;5.85;1.85;;;15.10;99.90;;;;;;6275876;22;20053;-81
2022/09/29 05:25:46;;;;;;;4.57;1.50;;;15.10;99.90;;;;;;6303100;22;20423;-80
2022/09/29 05:28:14;;;;;;;6.22;2.47;;;15.10;99.90;;;;;;6275917;22;20090;-80
2022/09/29 05:30:40;;;;;;;5.88;2.00;;;15.10;99.90;;;;;;6275803;22;20003;-80
2022/09/29 05:33:06;;;;;;;2.70;1.70;;;15.20;99.90;;;;;;6303951;22;20010;-81
2022/09/29 05:35:32;;;;;;;3.72;1.75;;;15.20;99.90;;;;;;6305666;22;19999;-81
2022/09/29 05:37:58;;;;;;;7.15;2.00;;;15.20;99.90;;;;;;6305278;22;20010;-80
2022/09/29 05:40:23;;;;;;;6.20;2.10;;;15.20;99.90;;;;;;6305570;22;19999;-81
2022/09/29 05:42:53;;;;;;;5.57;1.95;;;15.20;99.90;;;;;;6305506;22;20000;-81
2022/09/29 05:45:19;;;;;;;5.28;1.98;;;15.20;99.90;;;;;;6277896;22;19992;-81
2022/09/29 05:47:45;;;;;;;8.60;2.10;;;15.20;99.90;;;;;;6305398;22;20053;-81
2022/09/29 05:50:11;;;;;;;5.05;2.00;;;15.20;99.90;;;;;;6305593;22;20006;-81
2022/09/29 05:52:38;;;;;;;4.45;2.10;;;15.30;99.90;;;;;;6305343;22;20425;-81
2022/09/29 05:55:05;;;;;;;8.38;1.92;;;15.30;99.90;;;;;;6277676;22;19995;-81
2022/09/29 05:57:31;;;;;;;7.82;2.17;;;15.30;99.90;;;;;;6277951;22;20007;-81
2022/09/29 05:59:56;;;;;;;4.13;1.65;;;15.30;99.90;;;;;;6305512;22;20331;-81
2022/09/29 06:02:22;;;;;;;3.55;1.73;;;15.30;99.90;;;;;;6306947;22;20014;-81
2022/09/29 06:04:48;;;;;;;7.18;2.20;;;15.40;99.90;;;;;;6280141;22;20003;-81
2022/09/29 06:07:14;;;;;;;6.75;1.92;;;15.40;99.90;;;;;;6280352;22;20004;-80
2022/09/29 06:09:40;;;;;;;6.00;1.70;;;15.30;99.90;;;;;;6307385;22;20429;-81
2022/09/29 06:12:05;;;;;;;7.88;2.45;;;15.30;99.90;;;;;;6280172;22;20496;-80
2022/09/29 06:14:31;;;;;;;2.70;1.92;;;15.40;99.90;;;;;;6279736;22;20006;-80
2022/09/29 06:16:57;;;;;;;8.50;1.67;;;15.40;99.90;;;;;;6307243;22;19999;-80
2022/09/29 06:19:23;;;;;;;6.28;2.05;;;15.40;99.90;;;;;;6307363;22;20003;-80
2022/09/29 06:21:48;;;;;;;6.07;2.03;;;15.40;99.90;;;;;;6279907;22;20007;-80
2022/09/29 06:24:14;;;;;;;7.50;2.00;;;15.40;99.90;;;;;;6279585;22;20480;-81
2022/09/29 06:26:40;;;;;;;4.45;1.60;;;15.50;99.90;;;;;;6280165;22;20003;-80
2022/09/29 06:29:05;;;;;;;3.90;1.98;;;15.50;99.90;;;;;;6307018;22;20006;-80
2022/09/29 06:31:31;;;;;;;6.15;1.95;;;15.50;99.90;;;;;;6279645;22;20004;-80
2022/09/29 06:34:00;;;;;;;5.07;2.65;;;15.60;99.90;;;;;;6308794;22;20007;-80
2022/09/29 06:39:15;;;;;;;4.78;1.63;;;15.60;99.90;;;;;;6308764;22;20014;-80
2022/09/29 06:41:47;;;;;;;3.20;1.67;;;15.70;99.90;;;;;;6281398;22;20086;-80
2022/09/29 06:44:13;;;;;;;4.70;2.50;;;15.70;99.90;;;;;;6308667;22;19995;-79
2022/09/29 06:46:38;;;;;;;13.13;3.30;;;15.70;99.90;;;;;;6281333;22;20007;-77
2022/09/29 06:49:04;;;;;;;9.40;2.78;;;15.70;99.90;;;;;;6308717;22;19999;-79
2022/09/29 06:51:30;;;;;;;9.52;2.40;;;15.70;99.90;;;;;;6307294;22;20003;-78
2022/09/29 06:53:55;;;;;;;4.07;2.08;;;15.70;99.90;;;;;;6279788;22;20014;-79
2022/09/29 06:56:21;;;;;;;3.10;2.22;;;15.70;99.90;;;;;;6307067;22;20003;-78
2022/09/29 06:58:47;;;;;;;6.78;2.65;;;15.70;99.90;;;;;;6280394;22;20346;-79
2022/09/29 07:01:13;;;;;;;5.40;2.47;;;15.70;99.90;;;;;;6280800;22;20004;-79
2022/09/29 07:03:40;;;;;;;6.43;2.13;;;15.70;99.90;;;;;;6308344;22;20316;-78
2022/09/29 07:06:08;;;;;;;8.02;2.30;;;15.70;99.90;;;;;;6308302;22;20049;-78
2022/09/29 07:08:37;;;;;;;5.65;2.10;;;15.70;99.90;;;;;;6308497;22;20027;-79
2022/09/29 07:11:02;;;;;;;5.90;2.85;;;15.70;99.90;;;;;;6308540;22;20010;-79
2022/09/29 07:13:29;;;;;;;6.93;2.55;;;15.60;99.90;;;;;;6307788;22;20412;-79
2022/09/29 07:15:55;;;;;;;5.90;2.47;;;15.60;99.90;;;;;;6280926;22;20014;-79
2022/09/29 07:18:21;;;;;;;4.68;2.63;;;15.50;99.90;;;;;;6307162;22;19999;-79
2022/09/29 07:20:47;;;;;;;4.70;2.28;;;15.50;99.90;;;;;;6306804;22;20014;-79
2022/09/29 07:23:12;;;;;;;3.50;2.40;;;15.40;99.90;;;;;;6308403;22;20074;-79
2022/09/29 07:25:38;;;;;;;3.13;2.45;;;15.50;99.90;;;;;;6308102;22;19999;-80
2022/09/29 07:28:04;;;;;;;4.47;2.45;;;15.60;99.90;;;;;;6308416;22;20427;-79
2022/09/29 07:30:30;;;;;;;7.13;2.22;;;15.60;99.90;;;;;;6280994;22;20007;-79
2022/09/29 07:32:56;;;;;;;5.35;2.58;;;15.60;99.90;;;;;;6306727;22;20080;-80
2022/09/29 07:35:22;;;;;;;5.80;2.97;;;15.70;99.90;;;;;;6276863;22;20320;-79
2022/09/29 07:37:54;;;;;;;4.38;2.58;;;15.70;99.90;;;;;;6277312;22;19999;-79
2022/09/29 07:40:22;;;;;;;6.00;2.75;;;15.70;99.90;;;;;;6305206;22;20007;-80
2022/09/29 07:42:48;;;;;;;5.85;2.22;;;15.60;99.90;;;;;;6274185;22;19999;-80
2022/09/29 07:45:14;;;;;;;6.03;3.05;;;15.70;99.90;;;;;;6300262;22;19999;-80
2022/09/29 07:47:43;;;;;;;6.53;2.50;;;15.70;99.90;;;;;;6302443;22;20078;-80
2022/09/29 07:50:09;;;;;;;5.78;2.90;;;15.80;99.90;;;;;;6301504;22;20034;-80
2022/09/29 07:52:35;;;;;;;3.63;2.72;;;15.80;99.90;;;;;;6301965;22;20007;-80
2022/09/29 07:55:01;;;;;;;5.22;2.78;;;15.80;99.90;;;;;;6306033;22;20459;-80
2022/09/29 07:57:27;;;;;;;6.82;2.80;;;15.80;99.90;;;;;;6306879;22;20304;-80
2022/09/29 07:59:53;;;;;;;6.75;2.70;;;15.70;99.90;;;;;;6306062;22;20038;-77
2022/09/29 08:02:20;;;;;;;4.18;2.80;;;15.70;99.90;;;;;;6278769;22;20033;-79
2022/09/29 08:04:45;;;;;;;4.40;2.55;;;15.80;99.90;;;;;;6306002;22;20002;-80
2022/09/29 08:07:11;;;;;;;4.95;2.70;;;15.80;99.90;;;;;;6306259;22;20003;-80
2022/09/29 08:09:37;;;;;;;7.18;3.03;;;15.80;99.90;;;;;;6299509;22;20296;-80
2022/09/29 08:12:02;;;;;;;5.50;2.65;;;15.90;99.90;;;;;;6273391;22;20003;-80
2022/09/29 08:14:28;;;;;;;5.75;3.00;;;15.90;99.90;;;;;;6301522;22;20289;-80
2022/09/29 08:16:54;;;;;;;3.95;2.55;;;15.90;99.90;;;;;;6302586;22;20004;-79
2022/09/29 08:19:20;;;;;;;14.75;3.40;;;15.90;99.90;;;;;;6277076;22;20026;-79
2022/09/29 08:21:48;;;;;;;7.35;3.22;;;16.00;99.90;;;;;;6305054;22;20588;-80
2022/09/29 08:24:16;;;;;;;8.25;3.03;;;16.10;99.90;;;;;;6277136;22;20006;-79
2022/09/29 08:26:42;;;;;;;6.00;2.97;;;16.20;99.90;;;;;;6304614;22;20035;-79
2022/09/29 08:29:09;;;;;;;3.70;2.72;;;16.20;99.90;;;;;;6279363;22;20037;-80
2022/09/29 08:31:36;;;;;;;8.93;3.33;;;16.20;99.90;;;;;;6280157;22;20003;-80
2022/09/29 08:34:02;;;;;;;8.93;3.00;;;16.30;99.90;;;;;;6279712;22;20082;-79
2022/09/29 08:36:28;;;;;;;8.10;2.80;;;16.40;99.90;;;;;;6307363;22;20023;-80
2022/09/29 08:38:55;;;;;;;8.13;3.30;;;16.40;99.90;;;;;;6306802;22;20004;-80
2022/09/29 08:41:27;;;;;;;5.75;2.85;;;16.40;99.90;;;;;;6306660;22;19995;-80
2022/09/29 08:44:16;;;;;;;4.45;3.22;;;16.40;99.90;;;;;;6306382;22;19999;-79
2022/09/29 08:46:47;;;;;;;7.25;4.15;;;16.40;99.90;;;;;;6307662;22;20394;-79
2022/09/29 08:49:31;;;;;;;6.50;3.60;;;16.40;99.90;;;;;;6279911;22;20004;-80
2022/09/29 08:52:06;;;;;;;4.63;3.20;;;16.40;99.90;;;;;;6303636;22;19995;-79
2022/09/29 08:54:43;;;;;;;7.20;3.92;;;16.50;99.90;;;;;;6305017;22;20003;-80
2022/09/29 08:57:18;;;;;;;5.90;3.53;;;16.60;99.90;;;;;;6278252;22;20010;-79
2022/09/29 08:59:52;;;;;;;7.85;3.20;;;16.50;99.90;;;;;;6303557;22;20075;-79
2022/09/29 09:02:42;;;;;;;3.95;3.08;;;16.60;99.90;;;;;;6307080;22;20100;-80
2022/09/29 09:05:33;;;;;;;3.67;2.53;;;16.70;99.90;;;;;;6278071;22;19999;-80
2022/09/29 09:08:13;;;;;;;4.70;3.13;;;16.80;99.90;;;;;;6277198;22;20046;-80
2022/09/29 09:10:46;;;;;;;9.20;3.72;;;16.90;99.90;;;;;;6303157;22;20074;-80
2022/09/29 09:13:49;;;;;;;6.50;2.70;;;17.00;99.90;;;;;;6275597;22;20086;-80
2022/09/29 09:16:47;;;;;;;4.45;2.63;;;17.10;99.90;;;;;;6303659;22;20002;-79
2022/09/29 09:19:50;;;;;;;7.25;3.13;;;17.20;99.90;;;;;;6303846;22;19999;-82
2022/09/29 09:22:56;;;;;;;5.28;2.38;;;17.30;99.90;;;;;;6277086;22;20003;-83
2022/09/29 09:25:30;;;;;;;4.97;2.50;;;17.30;99.90;;;;;;6297995;22;20033;-82
2022/09/29 09:28:21;;;;;;;9.40;2.80;;;17.30;99.90;;;;;;6273197;22;20003;-82
2022/09/29 09:30:58;;;;;;;6.43;2.70;;;17.40;99.90;;;;;;6304056;22;20048;-82
2022/09/29 09:33:26;;;;;;;4.40;2.13;;;17.40;99.90;;;;;;6273139;22;20003;-83
2022/09/29 09:36:14;;;;;;;7.18;2.45;;;17.50;99.90;;;;;;6272331;22;20035;-82
2022/09/29 09:38:52;;;;;;;4.45;2.42;;;17.60;99.90;;;;;;6272702;22;20007;-80
2022/09/29 09:41:22;;;;;;;5.18;2.42;;;17.70;99.90;;;;;;6302666;22;20340;-79
2022/09/29 09:44:00;;;;;;;4.13;2.38;;;17.70;99.90;;;;;;6301262;22;20325;-79
2022/09/29 09:46:43;;;;;;;3.92;2.25;;;17.70;99.90;;;;;;6273673;22;20662;-80
2022/09/29 09:49:21;;;;;;;3.47;2.08;;;17.80;99.90;;;;;;6303415;22;20007;-79
2022/09/29 09:51:47;;;;;;;4.55;2.22;;;17.90;99.90;;;;;;6304322;22;20612;-79
2022/09/29 09:54:26;;;;;;;4.85;2.10;;;18.00;99.90;;;;;;6304150;22;20077;-80
2022/09/29 09:56:58;;;;;;;7.40;2.05;;;18.20;99.90;;;;;;6279205;22;20029;-80
2022/09/29 09:59:42;;;;;;;5.38;2.40;;;18.20;99.90;;;;;;6306612;22;20003;-80
2022/09/29 10:02:19;;;;;;;6.18;2.10;;;18.30;99.90;;;;;;6277340;22;20064;-83
2022/09/29 10:04:49;;;;;;;4.82;2.10;;;18.30;99.90;;;;;;6306704;22;20027;-84
2022/09/29 10:07:18;;;;;;;3.10;1.77;;;18.40;99.90;;;;;;6278854;22;20133;-83
2022/09/29 10:09:46;;;;;;;2.15;1.80;;;18.40;99.90;;;;;;6279318;22;20593;-81
2022/09/29 10:12:35;;;;;;;3.67;2.03;;;18.50;99.90;;;;;;6306908;22;20030;-78
2022/09/29 10:15:16;;;;;;;3.78;1.67;;;18.60;99.90;;;;;;6278937;22;20060;-78
2022/09/29 10:17:47;;;;;;;4.25;1.52;;;18.70;99.90;;;;;;6305112;22;20077;-79
2022/09/29 10:20:13;;;;;;;4.07;1.52;;;18.80;99.90;;;;;;6277708;22;20018;-79
2022/09/29 10:22:41;;;;;;;2.80;1.33;;;18.80;99.90;;;;;;6305077;22;19999;-80
2022/09/29 10:25:14;;;;;;;1.60;1.17;;;18.80;99.90;;;;;;6277832;22;20003;-83
2022/09/29 10:27:48;;;;;;;3.50;1.83;;;19.00;99.90;;;;;;6277842;22;19999;-82
2022/09/29 10:30:21;;;;;;;2.08;1.20;;;19.00;99.90;;;;;;6277522;22;20004;-82
2022/09/29 10:32:47;;;;;;;5.53;1.67;;;19.10;99.90;;;;;;6305156;22;20000;-82
2022/09/29 10:35:27;;;;;;;2.55;1.52;;;19.20;99.90;;;;;;6277889;22;20064;-79
2022/09/29 10:38:04;;;;;;;4.80;1.90;;;19.20;99.90;;;;;;6304754;22;19999;-79
2022/09/29 10:40:30;;;;;;;5.20;1.50;;;19.20;99.90;;;;;;6277757;22;20673;-78
2022/09/29 10:42:56;;;;;;;9.23;2.13;;;19.20;99.90;;;;;;6277175;22;20066;-79
2022/09/29 10:45:28;;;;;;;6.18;1.42;;;19.30;99.90;;;;;;6306822;22;20096;-82
2022/09/29 10:47:56;;;;;;;4.13;1.55;;;19.30;99.90;;;;;;6279725;22;20523;-82
2022/09/29 10:50:32;;;;;;;3.80;1.50;;;19.30;99.90;;;;;;6307476;22;20003;-83
2022/09/29 10:53:00;;;;;;;2.28;1.42;;;19.30;99.90;;;;;;6278552;22;20434;-82
2022/09/29 10:55:28;;;;;;;2.10;1.42;;;19.30;99.90;;;;;;6305351;22;20027;-82
2022/09/29 10:57:57;;;;;;;4.07;1.77;;;19.30;99.90;;;;;;6277842;22;20108;-82
2022/09/29 11:00:35;;;;;;;6.53;1.75;;;19.30;99.90;;;;;;6277869;22;20011;-82
2022/09/29 11:03:20;;;;;;;6.55;2.10;;;19.30;99.90;;;;;;6305002;22;20528;-82
2022/09/29 11:06:05;;;;;;;2.38;1.55;;;19.30;99.90;;;;;;6304981;22;20007;-82
2022/09/29 11:08:31;;;;;;;2.25;1.75;;;19.30;99.90;;;;;;6279347;22;20003;-82
2022/09/29 11:11:19;;;;;;;2.97;1.73;;;19.30;99.90;;;;;;6307082;22;20003;-83
2022/09/29 11:13:45;;;;;;;6.03;1.73;;;19.40;99.90;;;;;;6306761;22;20339;-82
2022/09/29 11:16:16;;;;;;;3.70;2.03;;;19.40;99.90;;;;;;6307107;22;20383;-82
2022/09/29 11:18:45;;;;;;;8.15;1.95;;;19.50;99.90;;;;;;6279707;22;20014;-83
2022/09/29 11:21:42;;;;;;;3.17;1.35;;;19.50;99.90;;;;;;6307305;22;20026;-82
2022/09/29 11:24:41;;;;;;;5.45;1.73;;;19.50;99.90;;;;;;6306469;22;19999;-82
2022/09/29 11:27:16;;;;;;;5.78;2.22;;;19.40;99.90;;;;;;6306818;22;19999;-82
2022/09/29 11:30:05;;;;;;;9.88;2.70;;;19.40;99.90;;;;;;6306976;22;20086;-83
2022/09/29 11:32:52;;;;;;;6.38;2.00;;;19.50;99.90;;;;;;6279455;22;20029;-82
2022/09/29 11:35:35;;;;;;;1.98;1.30;;;19.60;99.90;;;;;;6307136;22;19999;-83
2022/09/29 11:38:31;;;;;;;4.95;1.65;;;19.70;99.90;;;;;;6306836;22;20003;-83
2022/09/29 11:41:15;;;;;;;1.90;1.50;;;19.80;99.90;;;;;;6306625;22;20335;-82
2022/09/29 11:43:50;;;;;;;2.70;1.48;;;19.80;99.90;;;;;;6279591;22;20007;-80
2022/09/29 11:46:44;;;;;;;3.22;1.27;;;19.80;99.90;;;;;;6306737;22;19999;-83
2022/09/29 11:49:28;;;;;;;6.63;1.70;;;19.80;99.90;;;;;;6279501;22;20007;-82
2022/09/29 11:52:47;;;;;;;2.97;1.42;;;19.70;99.90;;;;;;6279480;22;20007;-83
2022/09/29 11:55:28;;;;;;;3.95;1.40;;;19.80;99.90;;;;;;6229984;22;20007;-83
2022/09/29 11:58:05;;;;;;;4.57;1.10;;;19.70;99.90;;;;;;6306608;22;20331;-83
2022/09/29 12:00:36;;;;;;;7.05;1.70;;;19.80;99.90;;;;;;6306706;22;20458;-83
2022/09/29 12:03:41;;;;;;;4.53;1.50;;;19.80;99.90;;;;;;6280170;22;20335;-83
2022/09/29 12:06:27;;;;;;;2.45;1.63;;;19.80;99.90;;;;;;6308262;22;20665;-84
2022/09/29 12:09:14;;;;;;;5.45;1.60;;;19.80;99.90;;;;;;6280831;22;20045;-83
2022/09/29 12:12:23;;;;;;;5.60;1.40;;;19.70;99.90;;;;;;6308122;22;20003;-83
2022/09/29 12:15:10;;;;;;;1.73;1.30;;;19.80;99.90;;;;;;6158498;23;20104;-83
2022/09/29 12:17:40;;;;;;;3.28;1.00;;;19.70;99.90;;;;;;6274306;22;20007;-83
2022/09/29 12:20:21;;;;;;;5.80;1.27;;;19.80;99.90;;;;;;6307640;22;20085;-83
2022/09/29 12:22:49;;;;;;;3.67;1.58;;;19.80;99.90;;;;;;6307997;22;20001;-83
2022/09/29 12:25:18;;;;;;;4.00;1.27;;;19.80;99.90;;;;;;6307924;22;19999;-83
2022/09/29 12:27:47;;;;;;;6.07;1.27;;;19.80;99.90;;;;;;6280604;22;20003;-83
2022/09/29 12:30:19;;;;;;;4.82;1.63;;;19.90;99.90;;;;;;6307956;22;19999;-83
2022/09/29 12:33:05;;;;;;;;;;;20.00;99.90;;;;;;6308135;22;20003;-83
2022/09/29 12:35:40;;;;;;;4.38;1.35;;;20.10;99.90;;;;;;6307752;22;20001;-83
2022/09/29 12:38:21;;;;;;;4.43;1.45;;;20.00;99.90;;;;;;6280458;22;20011;-81
2022/09/29 12:41:13;;;;;;;5.13;1.30;;;20.00;99.90;;;;;;6280617;22;20000;-83
2022/09/29 12:43:49;;;;;;;;;;;19.90;99.90;;;;;;6308332;22;19999;-84
2022/09/29 12:46:38;;;;;;;5.45;1.48;;;19.80;99.90;;;;;;6280167;22;19909;-78
2022/09/29 12:49:30;;;;;;;3.15;1.15;;;19.80;99.90;;;;;;6307709;22;20023;-78
2022/09/29 12:51:56;;;;;;;4.97;1.63;;;19.70;99.90;;;;;;6307350;22;20008;-78
2022/09/29 12:54:27;;;;;;;1.33;1.10;;;19.70;99.90;;;;;;6307628;22;20003;-77
2022/09/29 12:57:14;;;;;;;7.03;1.48;;;19.70;99.90;;;;;;6280351;22;20003;-78
2022/09/29 13:00:08;;;;;;;3.83;1.85;;;19.60;99.90;;;;;;6307570;22;20007;-78
2022/09/29 13:03:01;;;;;;;4.28;1.52;;;19.60;99.90;;;;;;6307453;22;20324;-83
2022/09/29 13:06:03;;;;;;;8.10;1.77;;;19.50;99.90;;;;;;6280017;22;20065;-83
2022/09/29 13:08:38;;;;;;;;;;;19.40;99.90;;;;;;6280848;22;20057;-83
2022/09/29 13:11:46;;;;;;;9.23;2.10;;;19.30;99.90;;;;;;6307260;22;19965;-84
2022/09/29 13:14:36;;;;;;;6.13;1.42;;;19.20;99.90;;;;;;6258972;22;20120;-83
2022/09/29 13:17:33;;;;;;;4.53;1.67;;;19.10;99.90;;;;;;6279589;22;20085;-84
2022/09/29 13:20:17;;;;;;;5.93;1.70;;;19.10;99.90;;;;;;6279212;22;20507;-80